.
WxDataArchive / Data Records for 2008-02-01
2008-01-31 February 2008 2008-02-02

Data Records for Friday, 01 February 2008

Time	Temp	Chill	HIndex	Humid	Dewpt	 Wind 	HiWind	WindDir	Rain 	Barom 
-----	----	-----	------	-----	-----	------	------	-------	-----	----- 
00:00	23.3	16.9	23.3	89	20.5	5	15	112	0.00	30.061 
00:05	23.3	15.0	23.3	89	20.5	7	16	112	0.00	30.049 
00:10	23.5	17.1	23.5	89	20.7	5	11	90	0.00	30.050 
00:15	23.5	16.1	23.5	89	20.7	6	16	90	0.00	30.054 
00:20	23.5	16.1	23.5	89	20.7	6	13	112	0.00	30.048 
00:25	23.5	16.1	23.5	89	20.7	6	14	112	0.00	30.044 
00:30	23.6	16.2	23.6	89	20.8	6	16	112	0.00	30.041 
00:35	23.6	16.2	23.6	89	20.8	6	11	112	0.00	30.038 
00:40	23.8	23.8	23.8	89	21.0	3	12	90	0.00	30.030 
00:45	23.8	18.6	23.8	89	21.0	4	9	112	0.00	30.031 
00:50	23.9	18.7	23.9	89	21.1	4	13	90	0.00	30.024 
00:55	23.9	17.6	23.9	89	21.1	5	14	112	0.00	30.016 
01:00	23.9	18.7	23.9	89	21.1	4	11	112	0.00	30.007 
01:05	24.1	19.0	24.1	89	21.3	4	10	112	0.00	30.004 
01:10	24.1	19.0	24.1	89	21.3	4	13	112	0.00	29.999 
01:15	24.1	17.8	24.1	89	21.3	5	13	90	0.00	29.989 
01:20	24.2	16.1	24.2	89	21.4	7	15	112	0.00	29.990 
01:25	24.2	16.9	24.2	89	21.4	6	13	112	0.00	29.989 
01:30	24.4	19.3	24.4	89	21.6	4	12	112	0.00	29.976 
01:35	24.4	17.2	24.4	89	21.6	6	19	112	0.00	29.979 
01:40	24.4	17.2	24.4	89	21.6	6	13	90	0.00	29.970 
01:45	24.4	15.6	24.4	89	21.6	8	15	112	0.00	29.970 
01:50	24.5	18.3	24.5	89	21.7	5	13	112	0.00	29.965 
01:55	24.5	17.3	24.5	89	21.7	6	14	112	0.00	29.952 
02:00	24.5	18.3	24.5	90	22.0	5	12	112	0.00	29.949 
02:05	24.5	18.3	24.5	90	22.0	5	13	112	0.00	29.942 
02:10	24.4	19.3	24.4	90	21.9	4	11	112	0.00	29.944 
02:15	24.4	18.1	24.4	91	22.2	5	11	112	0.00	29.938 
02:20	24.5	17.3	24.5	91	22.3	6	14	112	0.00	29.935 
02:25	24.5	17.3	24.5	91	22.3	6	13	112	0.00	29.926 
02:30	24.5	17.3	24.5	92	22.5	6	12	112	0.00	29.924 
02:35	24.5	17.3	24.5	92	22.5	6	13	112	0.00	29.922 
02:40	24.5	18.3	24.5	92	22.5	5	14	112	0.00	29.915 
02:45	24.5	18.3	24.5	92	22.5	5	12	112	0.00	29.917 
02:50	24.5	19.4	24.5	92	22.5	4	9	112	0.00	29.911 
02:55	24.5	19.4	24.5	92	22.5	4	11	112	0.00	29.902 
03:00	24.5	24.5	24.5	93	22.8	3	10	112	0.00	29.892 
03:05	24.7	18.5	24.7	93	23.0	5	12	112	0.00	29.887 
03:10	24.7	19.6	24.7	93	23.0	4	11	112	0.00	29.881 
03:15	24.7	18.5	24.7	93	23.0	5	13	112	0.00	29.869 
03:20	24.7	19.6	24.7	93	23.0	4	10	90	0.00	29.865 
03:25	24.7	19.6	24.7	93	23.0	4	16	112	0.00	29.854 
03:30	24.7	19.6	24.7	93	23.0	4	11	45	0.00	29.850 
03:35	24.7	18.5	24.7	93	23.0	5	13	112	0.00	29.843 
03:40	24.8	19.8	24.8	93	23.1	4	12	90	0.00	29.841 
03:45	24.8	18.6	24.8	93	23.1	5	15	112	0.00	29.839 
03:50	24.8	19.8	24.8	93	23.1	4	11	90	0.00	29.837 
03:55	25.0	18.9	25.0	93	23.3	5	15	90	0.00	29.828 
04:00	25.0	20.0	25.0	93	23.3	4	9	90	0.00	29.825 
04:05	25.0	20.0	25.0	93	23.3	4	12	90	0.00	29.826 
04:10	25.1	25.1	25.1	93	23.4	3	7	112	0.00	29.823 
04:15	25.1	25.1	25.1	93	23.4	3	12	68	0.00	29.818 
04:20	25.1	18.0	25.1	94	23.6	6	17	112	0.00	29.819 
04:25	25.3	18.3	25.3	94	23.8	6	13	90	0.00	29.822 
04:30	25.3	20.3	25.3	94	23.8	4	10	112	0.00	29.821 
04:35	25.3	19.2	25.3	94	23.8	5	13	112	0.00	29.816 
04:40	25.4	19.3	25.4	94	23.9	5	13	112	0.00	29.810 
04:45	25.4	18.4	25.4	94	23.9	6	10	112	0.00	29.808 
04:50	25.6	18.6	25.6	94	24.1	6	14	112	0.00	29.806 
04:55	25.6	18.6	25.6	94	24.1	6	16	112	0.00	29.804 
05:00	25.6	17.8	25.6	94	24.1	7	14	112	0.00	29.801 
05:05	25.7	17.9	25.7	94	24.2	7	12	112	0.00	29.792 
05:10	25.7	19.7	25.7	94	24.2	5	14	112	0.00	29.790 
05:15	25.7	18.7	25.7	94	24.2	6	13	112	0.00	29.789 
05:20	25.8	18.8	25.8	94	24.3	6	11	112	0.00	29.789 
05:25	25.8	19.8	25.8	94	24.3	5	14	112	0.00	29.789 
05:30	26.0	19.1	26.0	94	24.5	6	13	112	0.00	29.789 
05:35	26.0	20.0	26.0	94	24.5	5	16	112	0.00	29.789 
05:40	26.0	19.1	26.0	94	24.5	6	14	112	0.00	29.789 
05:45	26.1	19.2	26.1	94	24.6	6	11	112	0.00	29.784 
05:50	26.1	20.1	26.1	94	24.6	5	15	112	0.00	29.777 
05:55	26.1	19.2	26.1	94	24.6	6	13	112	0.00	29.777 
06:00	26.3	20.4	26.3	94	24.8	5	15	112	0.00	29.776 
06:05	26.3	20.4	26.3	94	24.8	5	11	112	0.00	29.775 
06:10	26.3	21.5	26.3	94	24.8	4	10	112	0.00	29.772 
06:15	26.3	19.4	26.3	94	24.8	6	13	112	0.00	29.767 
06:20	26.3	19.4	26.3	94	24.8	6	12	112	0.00	29.761 
06:25	26.3	20.4	26.3	94	24.8	5	13	112	0.00	29.759 
06:30	26.3	20.4	26.3	94	24.8	5	10	112	0.00	29.758 
06:35	26.3	20.4	26.3	94	24.8	5	11	112	0.00	29.757 
06:40	26.4	26.4	26.4	94	24.9	3	9	90	0.00	29.758 
06:45	26.4	21.6	26.4	94	24.9	4	11	112	0.00	29.754 
06:50	26.4	21.6	26.4	94	24.9	4	10	112	0.00	29.758 
06:55	26.4	26.4	26.4	94	24.9	3	12	112	0.00	29.755 
07:00	26.6	21.8	26.6	94	25.1	4	11	112	0.00	29.751 
07:05	26.6	20.7	26.6	94	25.1	5	12	112	0.00	29.747 
07:10	26.7	20.9	26.7	95	25.5	5	13	112	0.00	29.747 
07:15	26.7	20.9	26.7	95	25.5	5	12	112	0.00	29.746 
07:20	26.9	26.9	26.9	95	25.7	3	8	112	0.00	29.745 
07:25	26.9	26.9	26.9	95	25.7	3	11	112	0.00	29.751 
07:30	27.0	22.3	27.0	95	25.8	4	10	90	0.00	29.746 
07:35	27.2	22.5	27.2	95	26.0	4	14	112	0.00	29.745 
07:40	27.2	22.5	27.2	95	26.0	4	12	112	0.00	29.751 
07:45	27.3	27.3	27.3	95	26.1	1	7	112	0.00	29.754 
07:50	27.3	27.3	27.3	95	26.1	1	4	112	0.00	29.753 
07:55	27.3	27.3	27.3	95	26.1	1	3	112	0.00	29.755 
08:00	27.3	27.3	27.3	95	26.1	2	4	112	0.00	29.747 
08:05	27.5	27.5	27.5	95	26.3	3	7	90	0.00	29.746 
08:10	27.5	27.5	27.5	95	26.3	1	6	68	0.00	29.742 
08:15	27.5	27.5	27.5	95	26.3	3	9	112	0.00	29.740 
08:20	27.5	27.5	27.5	95	26.3	2	7	90	0.00	29.729 
08:25	27.5	27.5	27.5	95	26.3	2	7	112	0.00	29.727 
08:30	27.5	27.5	27.5	95	26.3	2	6	112	0.00	29.727 
08:35	27.5	27.5	27.5	95	26.3	2	9	112	0.00	29.726 
08:40	27.6	27.6	27.6	95	26.4	2	4	90	0.00	29.725 
08:45	27.6	27.6	27.6	95	26.4	2	6	112	0.00	29.725 
08:50	27.6	27.6	27.6	95	26.4	2	7	90	0.00	29.726 
08:55	27.8	27.8	27.8	95	26.6	2	7	90	0.00	29.727 
09:00	27.9	27.9	27.9	95	26.7	1	4	90	0.00	29.726 
09:05	28.1	28.1	28.1	95	26.9	1	5	45	0.00	29.726 
09:10	28.2	28.2	28.2	95	27.0	1	3	22	0.00	29.725 
09:15	28.2	28.2	28.2	95	27.0	1	4	90	0.00	29.728 
09:20	28.4	28.4	28.4	95	27.2	1	3	90	0.00	29.726 
09:25	28.5	28.5	28.5	95	27.3	2	5	90	0.00	29.721 
09:30	28.7	28.7	28.7	95	27.5	1	5	90	0.00	29.717 
09:35	28.7	28.7	28.7	95	27.5	2	5	68	0.00	29.713 
09:40	28.8	28.8	28.8	95	27.6	1	4	90	0.00	29.714 
09:45	29.0	29.0	29.0	95	27.8	2	5	90	0.00	29.720 
09:50	29.0	29.0	29.0	95	27.8	1	4	90	0.00	29.719 
09:55	29.1	29.1	29.1	96	28.1	2	4	90	0.00	29.714 
10:00	29.3	29.3	29.3	96	28.3	2	4	90	0.00	29.712 
10:05	29.4	29.4	29.4	96	28.4	2	5	112	0.00	29.709 
10:10	29.5	29.5	29.5	96	28.5	1	3	90	0.00	29.708 
10:15	29.8	29.8	29.8	96	28.8	1	4	112	0.00	29.707 
10:20	29.8	29.8	29.8	96	28.8	2	5	90	0.00	29.705 
10:25	30.0	30.0	30.0	96	29.0	3	6	90	0.00	29.706 
10:30	30.0	30.0	30.0	96	29.0	2	5	90	0.00	29.704 
10:35	30.1	30.1	30.1	96	29.1	2	5	112	0.00	29.704 
10:40	30.1	30.1	30.1	96	29.1	3	9	90	0.00	29.705 
10:45	30.1	30.1	30.1	96	29.1	2	5	112	0.00	29.704 
10:50	30.3	30.3	30.3	96	29.3	2	5	90	0.00	29.704 
10:55	30.3	30.3	30.3	96	29.3	1	4	112	0.00	29.707 
11:00	30.4	30.4	30.4	96	29.4	0	2	90	0.00	29.710 
11:05	30.6	30.6	30.6	96	29.6	0	2	90	0.00	29.711 
11:10	30.6	30.6	30.6	96	29.6	1	3	90	0.00	29.708 
11:15	30.6	30.6	30.6	96	29.6	0	2	90	0.00	29.710 
11:20	30.6	30.6	30.6	96	29.6	2	4	90	0.00	29.712 
11:25	30.6	30.6	30.6	96	29.6	1	3	112	0.00	29.712 
11:30	30.6	30.6	30.6	96	29.6	2	3	112	0.00	29.712 
11:35	30.7	30.7	30.7	96	29.7	1	2	112	0.00	29.711 
11:40	30.7	30.7	30.7	96	29.7	1	3	112	0.00	29.713 
11:45	30.7	30.7	30.7	96	29.7	0	1	112	0.00	29.714 
11:50	30.9	30.9	30.9	96	29.9	0	1	112	0.00	29.713 
11:55	30.9	30.9	30.9	96	29.9	0	2	112	0.00	29.713 
12:00	30.9	30.9	30.9	96	29.9	0	3	112	0.00	29.710 
12:05	30.9	30.9	30.9	96	29.9	0	1	112	0.00	29.708 
12:10	31.0	31.0	31.0	96	30.0	0	0	---	0.00	29.711 
12:15	31.0	31.0	31.0	96	30.0	0	2	112	0.00	29.708 
12:20	31.2	31.2	31.2	96	30.2	0	1	112	0.00	29.709 
12:25	31.2	31.2	31.2	96	30.2	0	1	112	0.00	29.708 
12:30	31.3	31.3	31.3	96	30.3	0	2	112	0.00	29.708 
12:35	31.3	31.3	31.3	96	30.3	0	2	112	0.00	29.708 
12:40	31.5	31.5	31.5	96	30.5	0	1	112	0.00	29.706 
12:45	31.5	31.5	31.5	96	30.5	0	2	112	0.00	29.709 
12:50	31.5	31.5	31.5	96	30.5	0	1	112	0.00	29.712 
12:55	31.5	31.5	31.5	96	30.5	0	1	112	0.00	29.715 
13:00	31.6	31.6	31.6	96	30.6	0	1	112	0.00	29.713 
13:05	31.8	31.8	31.8	96	30.8	0	1	112	0.00	29.714 
13:10	31.9	31.9	31.9	96	30.9	0	1	112	0.00	29.713 
13:15	31.9	31.9	31.9	96	30.9	1	2	112	0.00	29.712 
13:20	32.2	32.2	32.2	96	31.2	0	2	112	0.00	29.716 
13:25	32.2	32.2	32.2	96	31.2	0	1	112	0.00	29.717 
13:30	32.4	32.4	32.4	96	31.4	0	1	112	0.00	29.717 
13:35	32.5	32.5	32.5	96	31.5	0	2	112	0.00	29.717 
13:40	32.8	32.8	32.8	96	31.8	0	3	248	0.00	29.716 
13:45	32.9	32.9	32.9	96	31.9	0	3	248	0.00	29.716 
13:50	32.9	32.9	32.9	96	31.9	0	2	248	0.00	29.717 
13:55	33.1	33.1	33.1	96	32.1	0	2	248	0.00	29.717 
14:00	33.1	33.1	33.1	96	32.1	0	2	248	0.00	29.718 
14:05	33.2	33.2	33.2	96	32.2	1	5	248	0.00	29.721 
14:10	33.4	33.4	33.4	96	32.4	2	6	248	0.00	29.723 
14:15	33.4	33.4	33.4	96	32.4	2	9	270	0.00	29.729 
14:20	33.4	33.4	33.4	96	32.4	2	6	248	0.00	29.733 
14:25	33.4	29.7	33.4	96	32.4	4	12	270	0.00	29.733 
14:30	33.4	33.4	33.4	96	32.4	3	9	270	0.00	29.734 
14:35	33.4	33.4	33.4	96	32.4	2	6	270	0.00	29.734 
14:40	33.4	33.4	33.4	96	32.4	2	6	248	0.00	29.734 
14:45	33.4	29.7	33.4	96	32.4	4	7	248	0.00	29.738 
14:50	33.4	33.4	33.4	96	32.4	2	6	248	0.00	29.742 
14:55	33.4	33.4	33.4	96	32.4	2	7	248	0.00	29.744 
15:00	33.5	33.5	33.5	96	32.5	1	5	248	0.00	29.744 
15:05	33.5	33.5	33.5	97	32.7	1	4	248	0.01	29.745 
15:10	33.7	33.7	33.7	97	32.9	1	4	248	0.00	29.749 
15:15	33.7	33.7	33.7	97	32.9	1	4	248	0.01	29.750 
15:20	33.1	33.1	33.1	97	32.3	1	4	315	0.00	29.750 
15:25	32.7	32.7	32.7	97	31.9	1	3	270	0.00	29.750 
15:30	32.5	32.5	32.5	97	31.7	1	4	248	0.01	29.750 
15:35	32.5	32.5	32.5	97	31.7	0	2	248	0.00	29.752 
15:40	32.4	32.4	32.4	97	31.6	1	4	270	0.00	29.760 
15:45	32.2	32.2	32.2	97	31.4	1	3	270	0.01	29.764 
15:50	32.1	32.1	32.1	97	31.3	1	4	338	0.00	29.767 
15:55	31.8	31.8	31.8	97	31.0	1	3	338	0.00	29.767 
16:00	31.6	31.6	31.6	100	31.6	1	4	270	0.01	29.773 
16:05	31.5	31.5	31.5	96	30.5	2	6	292	0.00	29.783 
16:10	31.3	31.3	31.3	96	30.3	2	5	292	0.00	29.790 
16:15	31.2	31.2	31.2	96	30.2	2	5	270	0.00	29.800 
16:20	30.9	30.9	30.9	96	29.9	3	5	270	0.00	29.809 
16:25	30.7	30.7	30.7	96	29.7	2	6	270	0.00	29.815 
16:30	30.4	30.4	30.4	96	29.4	3	10	270	0.00	29.819 
16:35	30.3	30.3	30.3	96	29.3	3	6	270	0.01	29.830 
16:40	30.0	25.8	30.0	96	29.0	4	10	270	0.00	29.830 
16:45	30.3	30.3	30.3	96	29.3	3	6	270	0.00	29.831 
16:50	29.8	25.5	29.8	95	28.5	4	7	270	0.00	29.833 
16:55	29.5	29.5	29.5	95	28.2	3	7	270	0.00	29.849 
17:00	29.4	25.1	29.4	95	28.1	4	11	270	0.00	29.864 
17:05	29.3	29.3	29.3	94	27.8	3	9	270	0.00	29.857 
17:10	29.1	29.1	29.1	94	27.6	3	6	270	0.00	29.862 
17:15	29.1	29.1	29.1	94	27.6	2	5	270	0.00	29.865 
17:20	29.1	29.1	29.1	93	27.3	3	7	270	0.00	29.867 
17:25	29.1	29.1	29.1	93	27.3	3	7	270	0.00	29.879 
17:30	29.1	24.7	29.1	92	27.1	4	13	270	0.00	29.883 
17:35	29.0	24.6	29.0	92	27.0	4	9	270	0.00	29.892 
17:40	29.0	24.6	29.0	90	26.4	4	9	270	0.00	29.894 
17:45	28.8	28.8	28.8	89	26.0	3	9	270	0.00	29.897 
17:50	28.8	28.8	28.8	89	26.0	3	6	270	0.00	29.898 
17:55	28.8	28.8	28.8	88	25.7	3	7	270	0.00	29.907 
18:00	28.8	28.8	28.8	88	25.7	2	6	270	0.00	29.910 
18:05	28.8	28.8	28.8	88	25.7	3	10	270	0.00	29.910 
18:10	28.8	28.8	28.8	87	25.4	3	6	270	0.00	29.912 
18:15	28.8	28.8	28.8	87	25.4	3	6	270	0.00	29.914 
18:20	28.7	28.7	28.7	83	24.2	3	7	270	0.00	29.916 
18:25	28.7	24.3	28.7	86	25.1	4	9	270	0.00	29.920 
18:30	28.5	28.5	28.5	86	24.9	3	5	270	0.00	29.920 
18:35	28.5	28.5	28.5	85	24.6	2	4	270	0.00	29.923 
18:40	28.4	28.4	28.4	85	24.5	2	4	270	0.00	29.927 
18:45	28.4	28.4	28.4	86	24.8	2	5	270	0.00	29.928 
18:50	28.4	28.4	28.4	86	24.8	2	5	270	0.00	29.929 
18:55	28.4	28.4	28.4	86	24.8	2	6	270	0.00	29.931 
19:00	28.4	28.4	28.4	85	24.5	2	5	270	0.00	29.936 
19:05	28.2	28.2	28.2	85	24.3	2	4	248	0.00	29.935 
19:10	28.2	28.2	28.2	86	24.6	2	7	270	0.00	29.942 
19:15	28.2	28.2	28.2	86	24.6	2	4	270	0.00	29.945 
19:20	28.5	28.5	28.5	86	24.9	3	6	270	0.00	29.948 
19:25	28.8	28.8	28.8	86	25.2	3	10	270	0.01	29.952 
19:30	29.0	29.0	29.0	86	25.3	2	6	270	0.00	29.957 
19:35	29.1	29.1	29.1	85	25.2	3	6	292	0.00	29.959 
19:40	29.3	29.3	29.3	85	25.4	2	6	270	0.00	29.965 
19:45	29.3	29.3	29.3	85	25.4	3	6	270	0.00	29.972 
19:50	29.4	29.4	29.4	85	25.5	3	6	270	0.00	29.975 
19:55	29.4	29.4	29.4	85	25.5	3	5	270	0.00	29.977 
20:00	29.5	29.5	29.5	85	25.6	3	6	270	0.00	29.984 
20:05	29.5	29.5	29.5	85	25.6	2	5	292	0.00	29.985 
20:10	29.5	29.5	29.5	86	25.8	3	7	270	0.00	29.986 
20:15	29.7	29.7	29.7	85	25.8	3	6	270	0.00	29.988 
20:20	29.7	29.7	29.7	85	25.8	3	6	270	0.00	29.992 
20:25	29.8	29.8	29.8	85	25.9	3	11	270	0.00	30.001 
20:30	29.8	29.8	29.8	85	25.9	3	7	270	0.00	30.003 
20:35	29.8	29.8	29.8	85	25.9	2	5	270	0.00	30.003 
20:40	29.8	29.8	29.8	85	25.9	2	6	270	0.00	30.009 
20:45	30.0	30.0	30.0	86	26.3	3	7	270	0.00	30.014 
20:50	30.0	30.0	30.0	86	26.3	2	6	270	0.00	30.014 
20:55	30.0	30.0	30.0	86	26.3	2	4	248	0.00	30.013 
21:00	30.0	30.0	30.0	86	26.3	2	6	270	0.00	30.014 
21:05	30.0	30.0	30.0	86	26.3	2	4	270	0.00	30.017 
21:10	30.0	30.0	30.0	86	26.3	1	4	270	0.00	30.019 
21:15	30.1	30.1	30.1	86	26.4	2	8	270	0.00	30.027 
21:20	30.1	30.1	30.1	85	26.1	3	10	270	0.00	30.032 
21:25	30.1	30.1	30.1	85	26.1	2	8	270	0.00	30.033 
21:30	30.3	30.3	30.3	85	26.3	3	6	270	0.00	30.031 
21:35	30.3	30.3	30.3	85	26.3	2	6	270	0.00	30.030 
21:40	30.3	30.3	30.3	85	26.3	2	6	248	0.00	30.034 
21:45	30.3	30.3	30.3	85	26.3	2	5	270	0.00	30.034 
21:50	30.3	30.3	30.3	85	26.3	2	5	270	0.00	30.035 
21:55	30.3	30.3	30.3	85	26.3	2	7	248	0.00	30.036 
22:00	30.3	30.3	30.3	85	26.3	3	11	248	0.00	30.039 
22:05	30.3	30.3	30.3	85	26.3	3	5	270	0.00	30.039 
22:10	30.3	30.3	30.3	85	26.3	2	4	270	0.00	30.043 
22:15	30.3	26.1	30.3	85	26.3	4	7	270	0.00	30.042 
22:20	30.3	30.3	30.3	85	26.3	2	6	248	0.00	30.043 
22:25	30.1	30.1	30.1	86	26.4	3	7	270	0.00	30.043 
22:30	30.1	30.1	30.1	86	26.4	3	6	270	0.00	30.044 
22:35	30.1	30.1	30.1	86	26.4	2	7	270	0.00	30.042 
22:40	30.0	25.8	30.0	86	26.3	4	9	248	0.00	30.039 
22:45	30.0	30.0	30.0	86	26.3	2	6	248	0.00	30.046 
22:50	30.0	30.0	30.0	86	26.3	3	7	248	0.00	30.048 
22:55	30.0	30.0	30.0	86	26.3	3	7	248	0.00	30.050 
23:00	29.8	29.8	29.8	86	26.1	3	10	270	0.00	30.060 
23:05	29.8	29.8	29.8	86	26.1	2	7	292	0.00	30.059 
23:10	29.8	29.8	29.8	86	26.1	2	5	248	0.00	30.060 
23:15	29.8	29.8	29.8	86	26.1	2	6	248	0.00	30.061 
23:20	29.7	29.7	29.7	87	26.3	3	6	270	0.00	30.061 
23:25	29.7	29.7	29.7	87	26.3	2	7	248	0.00	30.062 
23:30	29.5	29.5	29.5	87	26.1	2	6	248	0.00	30.063 
23:35	29.5	29.5	29.5	87	26.1	2	7	270	0.00	30.064 
23:40	29.5	29.5	29.5	87	26.1	2	5	248	0.00	30.065 
23:45	29.4	29.4	29.4	87	26.0	2	6	248	0.00	30.068 
23:50	29.4	29.4	29.4	87	26.0	2	7	248	0.00	30.070 
23:55	29.4	29.4	29.4	90	26.8	3	7	248	0.00	30.074 

CoCoRaHS
IN-AL-39
A2 Web Hosting
Creative Commons License
GoDaddy
Look for:

loaded 2017-10-19 20:14:58 • last modified 2010-11-18 10:43:29
Privacy PolicyDisclaimer
• wx.awcolley.com is powered by PmWiki v.2002016 •
• all content (unless otherwise noted) © 2017 A W Colley